Rankings de siempre
Mejores tiempos personales válidos de atleta a través de todos los eventos y temporadas. Cada atleta aparece una vez por división.
Busca por nombre y abre la página donde está clasificado este récord de división.
104,510 atletas clasificados
| Pos. | Pos. AG | Atleta | Nacionalidad | Categoría de edad | TiempoMejor tiempo | Diferencia |
|---|---|---|---|---|---|---|
| 89926 | #21774 | Eryn OrmeGBR · W 25-29 · AG #21774 | GBR | W 25-29 | 1:58:50 | +79:14 |
| 89927 | #16571 | Hitomi KishimotoJPN · W 35-39 · AG #16571 | JPN | W 35-39 | 1:58:51 | +79:15 |
| 89928 | #1196 | Elisabet BarabasSWE · W 55-59 · AG #1196 | SWE | W 55-59 | 1:58:51 | +79:15 |
| 89929 | #21775 | Lara Der HovanessianFRA · W 25-29 · AG #21775 | FRA | W 25-29 | 1:58:51 | +79:15 |
| 89930 | #12602 | Lola DevillardFRA · W 16-24 · AG #12602 | FRA | W 16-24 | 1:58:51 | +79:15 |
| 89931 | #21776 | Anna SchwertGER · W 25-29 · AG #21776 | GER | W 25-29 | 1:58:51 | +79:15 |
| 89932 | #16572 | Generra PeckUSA · W 35-39 · AG #16572 | USA | W 35-39 | 1:58:51 | +79:15 |
| 89933 | #21522 | Nicolette NelsonUSA · W 30-34 · AG #21522 | USA | W 30-34 | 1:58:51 | +79:15 |
| 89934 | #16573 | Sandra SeualugaSAM · W 35-39 · AG #16573 | SAM | W 35-39 | 1:58:51 | +79:15 |
| 89935 | #6531 | Jocelyne ForbesCAN · W 45-49 · AG #6531 | CAN | W 45-49 | 1:58:51 | +79:15 |
| 89936 | #21777 | Shannon WatatUSA · W 25-29 · AG #21777 | USA | W 25-29 | 1:58:51 | +79:15 |
| 89937 | #16574 | Kristen PariseUSA · W 35-39 · AG #16574 | USA | W 35-39 | 1:58:52 | +79:16 |
| 89938 | #21778 | Veronica MarmottiniITA · W 25-29 · AG #21778 | ITA | W 25-29 | 1:58:52 | +79:16 |
| 89939 | #11641 | Elizabeth MelchorUSA · W 40-44 · AG #11641 | USA | W 40-44 | 1:58:52 | +79:16 |
| 89940 | #21779 | Jessica FreethNZL · W 25-29 · AG #21779 | NZL | W 25-29 | 1:58:52 | +79:16 |
| 89941 | #11642 | Edna CoronellUSA · W 40-44 · AG #11642 | USA | W 40-44 | 1:58:52 | +79:16 |
| 89942 | #16575 | Li Chin (Michelle) NgMAS · W 35-39 · AG #16575 | MAS | W 35-39 | 1:58:52 | +79:16 |
| 89943 | #11643 | Aline SantosBRA · W 40-44 · AG #11643 | BRA | W 40-44 | 1:58:52 | +79:16 |
| 89944 | #1197 | María Luz BuitragoUSA · W 55-59 · AG #1197 | USA | W 55-59 | 1:58:52 | +79:16 |
| 89945 | #12603 | Jordan HedleyUSA · W 16-24 · AG #12603 | USA | W 16-24 | 1:58:52 | +79:16 |
| 89946 | #21781 | Sabrina R DewanUSA · W 25-29 · AG #21781 | USA | W 25-29 | 1:58:52 | +79:16 |
| 89947 | #407 | Alessandra SAHONEROUSA · W 60-64 · AG #407 | USA | W 60-64 | 1:58:52 | +79:16 |
| 89948 | #21523 | Julia MatheisNED · W 30-34 · AG #21523 | NED | W 30-34 | 1:58:52 | +79:16 |
| 89949 | #21782 | Angela JaramilloMEX · W 25-29 · AG #21782 | MEX | W 25-29 | 1:58:52 | +79:16 |
| 89950 | #11644 | Mette FruergaardDEN · W 40-44 · AG #11644 | DEN | W 40-44 | 1:58:52 | +79:16 |
Página 3,598 de 4,181